sensor_id;sensor_type;location;lat;lon;timestamp;P1;durP1;ratioP1;P2;durP2;ratioP2
33810;SDS011;20119;48.334;16.206;2023-03-01T00:00:54;48.30;;;29.27;;
33810;SDS011;20119;48.334;16.206;2023-03-01T00:03:27;52.08;;;30.17;;
33810;SDS011;20119;48.334;16.206;2023-03-01T00:05:54;51.80;;;29.45;;
33810;SDS011;20119;48.334;16.206;2023-03-01T00:08:22;51.17;;;30.15;;
33810;SDS011;20119;48.334;16.206;2023-03-01T00:10:50;47.88;;;28.55;;
33810;SDS011;20119;48.334;16.206;2023-03-01T00:13:27;48.75;;;29.20;;
33810;SDS011;20119;48.334;16.206;2023-03-01T00:15:55;49.05;;;28.13;;
33810;SDS011;20119;48.334;16.206;2023-03-01T00:18:22;47.30;;;28.60;;
33810;SDS011;20119;48.334;16.206;2023-03-01T00:20:50;50.00;;;28.67;;
33810;SDS011;20119;48.334;16.206;2023-03-01T00:23:19;48.05;;;28.90;;
33810;SDS011;20119;48.334;16.206;2023-03-01T00:25:47;50.85;;;28.08;;
33810;SDS011;20119;48.334;16.206;2023-03-01T00:28:15;47.08;;;29.70;;
33810;SDS011;20119;48.334;16.206;2023-03-01T00:30:42;51.13;;;28.65;;
33810;SDS011;20119;48.334;16.206;2023-03-01T00:33:10;49.40;;;29.77;;
33810;SDS011;20119;48.334;16.206;2023-03-01T00:35:38;48.20;;;29.75;;
33810;SDS011;20119;48.334;16.206;2023-03-01T00:38:05;51.28;;;30.88;;
33810;SDS011;20119;48.334;16.206;2023-03-01T00:40:33;51.85;;;29.58;;
33810;SDS011;20119;48.334;16.206;2023-03-01T00:43:01;47.08;;;28.58;;
33810;SDS011;20119;48.334;16.206;2023-03-01T00:45:30;49.10;;;28.38;;
33810;SDS011;20119;48.334;16.206;2023-03-01T00:47:59;43.13;;;23.50;;
33810;SDS011;20119;48.334;16.206;2023-03-01T00:50:26;51.25;;;28.95;;
33810;SDS011;20119;48.334;16.206;2023-03-01T00:52:53;51.92;;;29.67;;
33810;SDS011;20119;48.334;16.206;2023-03-01T00:55:21;52.42;;;28.20;;
33810;SDS011;20119;48.334;16.206;2023-03-01T00:57:49;52.40;;;29.30;;
33810;SDS011;20119;48.334;16.206;2023-03-01T01:00:17;49.00;;;29.23;;
33810;SDS011;20119;48.334;16.206;2023-03-01T01:02:46;49.47;;;28.98;;
33810;SDS011;20119;48.334;16.206;2023-03-01T01:05:13;48.83;;;27.00;;
33810;SDS011;20119;48.334;16.206;2023-03-01T01:07:46;43.88;;;27.92;;
33810;SDS011;20119;48.334;16.206;2023-03-01T01:10:13;50.17;;;28.83;;
33810;SDS011;20119;48.334;16.206;2023-03-01T01:12:42;48.42;;;29.30;;
33810;SDS011;20119;48.334;16.206;2023-03-01T01:15:09;49.55;;;28.10;;
33810;SDS011;20119;48.334;16.206;2023-03-01T01:17:39;48.05;;;29.75;;
33810;SDS011;20119;48.334;16.206;2023-03-01T01:20:09;48.97;;;29.05;;
33810;SDS011;20119;48.334;16.206;2023-03-01T01:22:36;49.83;;;29.30;;
33810;SDS011;20119;48.334;16.206;2023-03-01T01:25:04;50.38;;;29.58;;
33810;SDS011;20119;48.334;16.206;2023-03-01T01:27:31;51.55;;;30.05;;
33810;SDS011;20119;48.334;16.206;2023-03-01T01:29:58;50.03;;;30.10;;
33810;SDS011;20119;48.334;16.206;2023-03-01T01:32:25;53.65;;;31.33;;
33810;SDS011;20119;48.334;16.206;2023-03-01T01:34:53;47.90;;;29.05;;
33810;SDS011;20119;48.334;16.206;2023-03-01T01:37:22;52.90;;;30.58;;
33810;SDS011;20119;48.334;16.206;2023-03-01T01:39:56;51.63;;;30.27;;
33810;SDS011;20119;48.334;16.206;2023-03-01T01:42:23;48.60;;;28.95;;
33810;SDS011;20119;48.334;16.206;2023-03-01T01:47:52;48.70;;;29.65;;
33810;SDS011;20119;48.334;16.206;2023-03-01T01:50:21;48.17;;;28.92;;
33810;SDS011;20119;48.334;16.206;2023-03-01T01:52:51;53.17;;;30.60;;
33810;SDS011;20119;48.334;16.206;2023-03-01T01:55:20;53.83;;;31.48;;
33810;SDS011;20119;48.334;16.206;2023-03-01T01:57:51;44.05;;;28.95;;
33810;SDS011;20119;48.334;16.206;2023-03-01T02:00:22;51.05;;;29.95;;
33810;SDS011;20119;48.334;16.206;2023-03-01T02:05:22;51.95;;;31.20;;
33810;SDS011;20119;48.334;16.206;2023-03-01T02:07:56;50.22;;;28.63;;
33810;SDS011;20119;48.334;16.206;2023-03-01T02:10:24;51.03;;;29.73;;
33810;SDS011;20119;48.334;16.206;2023-03-01T02:12:53;51.00;;;30.40;;
33810;SDS011;20119;48.334;16.206;2023-03-01T02:15:21;48.42;;;29.77;;
33810;SDS011;20119;48.334;16.206;2023-03-01T02:17:48;49.08;;;29.02;;
33810;SDS011;20119;48.334;16.206;2023-03-01T02:20:18;55.47;;;31.27;;
33810;SDS011;20119;48.334;16.206;2023-03-01T02:22:49;50.30;;;29.00;;
33810;SDS011;20119;48.334;16.206;2023-03-01T02:25:26;51.95;;;30.75;;
33810;SDS011;20119;48.334;16.206;2023-03-01T02:27:58;48.85;;;29.80;;
33810;SDS011;20119;48.334;16.206;2023-03-01T02:30:32;54.85;;;31.52;;
33810;SDS011;20119;48.334;16.206;2023-03-01T02:33:00;50.78;;;30.02;;
33810;SDS011;20119;48.334;16.206;2023-03-01T02:35:27;48.53;;;29.42;;
33810;SDS011;20119;48.334;16.206;2023-03-01T02:37:58;55.08;;;30.45;;
33810;SDS011;20119;48.334;16.206;2023-03-01T02:40:26;53.28;;;30.45;;
33810;SDS011;20119;48.334;16.206;2023-03-01T02:45:47;49.67;;;28.88;;
33810;SDS011;20119;48.334;16.206;2023-03-01T02:48:15;51.30;;;30.63;;
33810;SDS011;20119;48.334;16.206;2023-03-01T02:50:50;47.53;;;28.88;;
33810;SDS011;20119;48.334;16.206;2023-03-01T02:53:28;52.28;;;28.88;;
33810;SDS011;20119;48.334;16.206;2023-03-01T02:56:05;51.47;;;29.25;;
33810;SDS011;20119;48.334;16.206;2023-03-01T02:58:38;48.15;;;28.23;;
33810;SDS011;20119;48.334;16.206;2023-03-01T03:01:14;53.95;;;29.77;;
33810;SDS011;20119;48.334;16.206;2023-03-01T03:03:42;48.00;;;28.65;;
33810;SDS011;20119;48.334;16.206;2023-03-01T03:06:09;48.67;;;28.73;;
33810;SDS011;20119;48.334;16.206;2023-03-01T03:08:37;51.33;;;29.00;;
33810;SDS011;20119;48.334;16.206;2023-03-01T03:11:04;51.78;;;32.10;;
33810;SDS011;20119;48.334;16.206;2023-03-01T03:13:31;50.85;;;29.80;;
33810;SDS011;20119;48.334;16.206;2023-03-01T03:15:59;50.72;;;30.48;;
33810;SDS011;20119;48.334;16.206;2023-03-01T03:18:27;49.05;;;30.38;;
33810;SDS011;20119;48.334;16.206;2023-03-01T03:20:54;46.92;;;28.75;;
33810;SDS011;20119;48.334;16.206;2023-03-01T03:23:21;49.45;;;30.45;;
33810;SDS011;20119;48.334;16.206;2023-03-01T03:25:49;52.35;;;30.52;;
33810;SDS011;20119;48.334;16.206;2023-03-01T03:28:16;46.05;;;27.73;;
33810;SDS011;20119;48.334;16.206;2023-03-01T03:30:44;47.00;;;28.38;;
33810;SDS011;20119;48.334;16.206;2023-03-01T03:33:12;51.58;;;30.30;;
33810;SDS011;20119;48.334;16.206;2023-03-01T03:35:41;47.92;;;29.35;;
33810;SDS011;20119;48.334;16.206;2023-03-01T03:40:41;49.65;;;29.67;;
33810;SDS011;20119;48.334;16.206;2023-03-01T03:43:11;50.00;;;29.60;;
33810;SDS011;20119;48.334;16.206;2023-03-01T03:45:40;50.33;;;29.27;;
33810;SDS011;20119;48.334;16.206;2023-03-01T03:48:08;47.53;;;28.90;;
33810;SDS011;20119;48.334;16.206;2023-03-01T03:50:37;51.58;;;28.75;;
33810;SDS011;20119;48.334;16.206;2023-03-01T03:53:07;47.67;;;29.52;;
33810;SDS011;20119;48.334;16.206;2023-03-01T03:55:35;35.67;;;22.73;;
33810;SDS011;20119;48.334;16.206;2023-03-01T03:58:04;48.78;;;29.52;;
33810;SDS011;20119;48.334;16.206;2023-03-01T04:00:33;49.00;;;28.90;;
33810;SDS011;20119;48.334;16.206;2023-03-01T04:03:01;47.13;;;28.88;;
33810;SDS011;20119;48.334;16.206;2023-03-01T04:05:29;48.65;;;29.40;;
33810;SDS011;20119;48.334;16.206;2023-03-01T04:07:57;48.78;;;29.27;;
33810;SDS011;20119;48.334;16.206;2023-03-01T04:10:34;45.30;;;29.65;;
33810;SDS011;20119;48.334;16.206;2023-03-01T04:13:03;47.70;;;28.55;;
33810;SDS011;20119;48.334;16.206;2023-03-01T04:15:30;46.08;;;28.60;;
33810;SDS011;20119;48.334;16.206;2023-03-01T04:17:58;53.22;;;29.80;;
33810;SDS011;20119;48.334;16.206;2023-03-01T04:20:27;47.33;;;28.75;;
33810;SDS011;20119;48.334;16.206;2023-03-01T04:22:57;47.92;;;30.17;;
33810;SDS011;20119;48.334;16.206;2023-03-01T04:25:35;53.03;;;30.90;;
33810;SDS011;20119;48.334;16.206;2023-03-01T04:28:03;50.28;;;29.17;;
33810;SDS011;20119;48.334;16.206;2023-03-01T04:30:31;52.65;;;31.00;;
33810;SDS011;20119;48.334;16.206;2023-03-01T04:33:02;53.50;;;33.53;;
33810;SDS011;20119;48.334;16.206;2023-03-01T04:35:31;51.53;;;31.65;;
33810;SDS011;20119;48.334;16.206;2023-03-01T04:37:59;52.70;;;31.17;;
33810;SDS011;20119;48.334;16.206;2023-03-01T04:40:26;51.55;;;30.58;;
33810;SDS011;20119;48.334;16.206;2023-03-01T04:42:55;52.67;;;30.40;;
33810;SDS011;20119;48.334;16.206;2023-03-01T04:45:23;50.15;;;30.90;;
33810;SDS011;20119;48.334;16.206;2023-03-01T04:47:50;52.67;;;31.13;;
33810;SDS011;20119;48.334;16.206;2023-03-01T04:50:17;56.65;;;31.33;;
33810;SDS011;20119;48.334;16.206;2023-03-01T04:52:47;52.22;;;31.83;;
33810;SDS011;20119;48.334;16.206;2023-03-01T04:55:15;54.63;;;31.73;;
33810;SDS011;20119;48.334;16.206;2023-03-01T04:57:43;53.47;;;33.05;;
33810;SDS011;20119;48.334;16.206;2023-03-01T05:00:12;53.55;;;32.00;;
33810;SDS011;20119;48.334;16.206;2023-03-01T05:02:47;55.20;;;31.77;;
33810;SDS011;20119;48.334;16.206;2023-03-01T05:05:18;56.33;;;32.88;;
33810;SDS011;20119;48.334;16.206;2023-03-01T05:07:51;54.08;;;32.63;;
33810;SDS011;20119;48.334;16.206;2023-03-01T05:10:20;58.50;;;36.83;;
33810;SDS011;20119;48.334;16.206;2023-03-01T05:12:48;64.65;;;40.33;;
33810;SDS011;20119;48.334;16.206;2023-03-01T05:15:18;62.70;;;37.45;;
33810;SDS011;20119;48.334;16.206;2023-03-01T05:20:14;61.38;;;37.35;;
33810;SDS011;20119;48.334;16.206;2023-03-01T05:22:42;60.50;;;37.28;;
33810;SDS011;20119;48.334;16.206;2023-03-01T05:25:09;59.67;;;35.83;;
33810;SDS011;20119;48.334;16.206;2023-03-01T05:27:39;56.53;;;34.93;;
33810;SDS011;20119;48.334;16.206;2023-03-01T05:30:06;56.20;;;35.17;;
33810;SDS011;20119;48.334;16.206;2023-03-01T05:32:45;57.00;;;34.10;;
33810;SDS011;20119;48.334;16.206;2023-03-01T05:35:14;57.25;;;33.85;;
33810;SDS011;20119;48.334;16.206;2023-03-01T05:37:43;57.40;;;34.97;;
33810;SDS011;20119;48.334;16.206;2023-03-01T05:40:13;61.33;;;33.95;;
33810;SDS011;20119;48.334;16.206;2023-03-01T05:42:43;59.35;;;35.55;;
33810;SDS011;20119;48.334;16.206;2023-03-01T05:45:10;57.53;;;34.50;;
33810;SDS011;20119;48.334;16.206;2023-03-01T05:47:39;65.20;;;36.25;;
33810;SDS011;20119;48.334;16.206;2023-03-01T05:50:13;63.13;;;35.42;;
33810;SDS011;20119;48.334;16.206;2023-03-01T05:52:44;59.85;;;35.28;;
33810;SDS011;20119;48.334;16.206;2023-03-01T05:55:13;64.60;;;37.03;;
33810;SDS011;20119;48.334;16.206;2023-03-01T05:57:40;62.83;;;37.47;;
33810;SDS011;20119;48.334;16.206;2023-03-01T06:00:08;62.08;;;37.85;;
33810;SDS011;20119;48.334;16.206;2023-03-01T06:02:37;64.70;;;38.72;;
33810;SDS011;20119;48.334;16.206;2023-03-01T06:05:06;64.47;;;37.55;;
33810;SDS011;20119;48.334;16.206;2023-03-01T06:07:35;64.40;;;38.08;;
33810;SDS011;20119;48.334;16.206;2023-03-01T06:10:03;63.67;;;36.42;;
33810;SDS011;20119;48.334;16.206;2023-03-01T06:12:31;64.05;;;36.40;;
33810;SDS011;20119;48.334;16.206;2023-03-01T06:15:00;64.35;;;38.85;;
33810;SDS011;20119;48.334;16.206;2023-03-01T06:17:28;63.90;;;38.63;;
33810;SDS011;20119;48.334;16.206;2023-03-01T06:19:57;71.53;;;40.92;;
33810;SDS011;20119;48.334;16.206;2023-03-01T06:22:24;70.43;;;40.42;;
33810;SDS011;20119;48.334;16.206;2023-03-01T06:24:53;68.35;;;41.00;;
33810;SDS011;20119;48.334;16.206;2023-03-01T06:27:20;61.85;;;37.20;;
33810;SDS011;20119;48.334;16.206;2023-03-01T06:29:47;61.10;;;35.65;;
33810;SDS011;20119;48.334;16.206;2023-03-01T06:32:15;57.55;;;35.45;;
33810;SDS011;20119;48.334;16.206;2023-03-01T06:34:43;62.70;;;37.38;;
33810;SDS011;20119;48.334;16.206;2023-03-01T06:37:11;60.50;;;36.72;;
33810;SDS011;20119;48.334;16.206;2023-03-01T06:39:38;60.08;;;36.63;;
33810;SDS011;20119;48.334;16.206;2023-03-01T06:42:07;57.90;;;36.28;;
33810;SDS011;20119;48.334;16.206;2023-03-01T06:44:35;59.45;;;35.88;;
33810;SDS011;20119;48.334;16.206;2023-03-01T06:47:02;56.88;;;35.72;;
33810;SDS011;20119;48.334;16.206;2023-03-01T06:49:29;59.00;;;36.75;;
33810;SDS011;20119;48.334;16.206;2023-03-01T06:51:57;65.25;;;37.15;;
33810;SDS011;20119;48.334;16.206;2023-03-01T06:54:24;56.30;;;35.50;;
33810;SDS011;20119;48.334;16.206;2023-03-01T06:56:52;58.35;;;35.25;;
33810;SDS011;20119;48.334;16.206;2023-03-01T06:59:21;58.92;;;34.58;;
33810;SDS011;20119;48.334;16.206;2023-03-01T07:01:48;57.15;;;34.08;;
33810;SDS011;20119;48.334;16.206;2023-03-01T07:04:16;58.30;;;35.47;;
33810;SDS011;20119;48.334;16.206;2023-03-01T07:06:43;61.55;;;35.15;;
33810;SDS011;20119;48.334;16.206;2023-03-01T07:09:10;56.13;;;34.47;;
33810;SDS011;20119;48.334;16.206;2023-03-01T07:11:38;53.58;;;34.90;;
33810;SDS011;20119;48.334;16.206;2023-03-01T07:14:05;56.67;;;34.60;;
33810;SDS011;20119;48.334;16.206;2023-03-01T07:16:34;54.92;;;33.88;;
33810;SDS011;20119;48.334;16.206;2023-03-01T07:19:02;60.00;;;35.47;;
33810;SDS011;20119;48.334;16.206;2023-03-01T07:21:30;57.55;;;35.00;;
33810;SDS011;20119;48.334;16.206;2023-03-01T07:23:57;64.38;;;36.63;;
33810;SDS011;20119;48.334;16.206;2023-03-01T07:26:24;64.75;;;39.38;;
33810;SDS011;20119;48.334;16.206;2023-03-01T07:28:51;57.95;;;36.75;;
33810;SDS011;20119;48.334;16.206;2023-03-01T07:31:19;58.35;;;35.22;;
33810;SDS011;20119;48.334;16.206;2023-03-01T07:33:48;59.00;;;34.67;;
33810;SDS011;20119;48.334;16.206;2023-03-01T07:36:15;56.72;;;34.47;;
33810;SDS011;20119;48.334;16.206;2023-03-01T07:38:42;54.03;;;33.30;;
33810;SDS011;20119;48.334;16.206;2023-03-01T07:41:09;56.60;;;33.60;;
33810;SDS011;20119;48.334;16.206;2023-03-01T07:43:36;53.58;;;34.08;;
33810;SDS011;20119;48.334;16.206;2023-03-01T07:46:04;57.75;;;35.63;;
33810;SDS011;20119;48.334;16.206;2023-03-01T07:48:31;52.03;;;33.08;;
33810;SDS011;20119;48.334;16.206;2023-03-01T07:51:02;54.40;;;33.42;;
33810;SDS011;20119;48.334;16.206;2023-03-01T07:53:31;54.83;;;32.10;;
33810;SDS011;20119;48.334;16.206;2023-03-01T07:56:02;53.92;;;33.05;;
33810;SDS011;20119;48.334;16.206;2023-03-01T07:58:30;58.17;;;34.13;;
33810;SDS011;20119;48.334;16.206;2023-03-01T08:01:00;55.55;;;33.95;;
33810;SDS011;20119;48.334;16.206;2023-03-01T08:03:28;55.63;;;33.85;;
33810;SDS011;20119;48.334;16.206;2023-03-01T08:05:59;53.42;;;32.58;;
33810;SDS011;20119;48.334;16.206;2023-03-01T08:08:28;52.95;;;33.67;;
33810;SDS011;20119;48.334;16.206;2023-03-01T08:10:56;53.05;;;32.85;;
33810;SDS011;20119;48.334;16.206;2023-03-01T08:13:24;53.72;;;33.88;;
33810;SDS011;20119;48.334;16.206;2023-03-01T08:15:52;55.03;;;33.67;;
33810;SDS011;20119;48.334;16.206;2023-03-01T08:18:19;58.05;;;34.42;;
33810;SDS011;20119;48.334;16.206;2023-03-01T08:20:48;57.65;;;33.10;;
33810;SDS011;20119;48.334;16.206;2023-03-01T08:23:17;48.88;;;31.08;;
33810;SDS011;20119;48.334;16.206;2023-03-01T08:25:43;57.08;;;35.08;;
33810;SDS011;20119;48.334;16.206;2023-03-01T08:28:11;54.20;;;32.92;;
33810;SDS011;20119;48.334;16.206;2023-03-01T08:30:39;60.58;;;35.95;;
33810;SDS011;20119;48.334;16.206;2023-03-01T08:33:06;58.88;;;35.67;;
33810;SDS011;20119;48.334;16.206;2023-03-01T08:35:33;60.13;;;35.88;;
33810;SDS011;20119;48.334;16.206;2023-03-01T08:38:00;65.65;;;37.50;;
33810;SDS011;20119;48.334;16.206;2023-03-01T08:40:29;58.35;;;34.83;;
33810;SDS011;20119;48.334;16.206;2023-03-01T08:42:57;53.00;;;33.45;;
33810;SDS011;20119;48.334;16.206;2023-03-01T08:45:24;53.35;;;34.30;;
33810;SDS011;20119;48.334;16.206;2023-03-01T08:47:53;55.85;;;34.92;;
33810;SDS011;20119;48.334;16.206;2023-03-01T08:50:19;55.47;;;34.88;;
33810;SDS011;20119;48.334;16.206;2023-03-01T08:52:49;52.30;;;33.33;;
33810;SDS011;20119;48.334;16.206;2023-03-01T08:55:16;55.17;;;34.55;;
33810;SDS011;20119;48.334;16.206;2023-03-01T08:57:46;51.50;;;32.17;;
33810;SDS011;20119;48.334;16.206;2023-03-01T09:00:13;54.15;;;33.65;;
33810;SDS011;20119;48.334;16.206;2023-03-01T09:02:42;52.97;;;33.28;;
33810;SDS011;20119;48.334;16.206;2023-03-01T09:05:10;51.22;;;32.70;;
33810;SDS011;20119;48.334;16.206;2023-03-01T09:07:37;51.47;;;32.97;;
33810;SDS011;20119;48.334;16.206;2023-03-01T09:10:05;50.13;;;32.88;;
33810;SDS011;20119;48.334;16.206;2023-03-01T09:12:33;52.80;;;32.65;;
33810;SDS011;20119;48.334;16.206;2023-03-01T09:15:02;52.42;;;31.88;;
33810;SDS011;20119;48.334;16.206;2023-03-01T09:17:30;51.33;;;31.77;;
33810;SDS011;20119;48.334;16.206;2023-03-01T09:19:57;49.72;;;31.25;;
33810;SDS011;20119;48.334;16.206;2023-03-01T09:22:24;49.90;;;30.17;;
33810;SDS011;20119;48.334;16.206;2023-03-01T09:24:51;51.53;;;30.80;;
33810;SDS011;20119;48.334;16.206;2023-03-01T09:27:19;48.40;;;30.85;;
33810;SDS011;20119;48.334;16.206;2023-03-01T09:29:46;49.33;;;30.77;;
33810;SDS011;20119;48.334;16.206;2023-03-01T09:32:15;45.15;;;28.48;;
33810;SDS011;20119;48.334;16.206;2023-03-01T09:34:43;46.03;;;29.52;;
33810;SDS011;20119;48.334;16.206;2023-03-01T09:37:29;49.10;;;27.80;;
33810;SDS011;20119;48.334;16.206;2023-03-01T09:39:58;49.55;;;30.23;;
33810;SDS011;20119;48.334;16.206;2023-03-01T09:42:26;45.38;;;29.50;;
33810;SDS011;20119;48.334;16.206;2023-03-01T09:44:57;47.67;;;29.55;;
33810;SDS011;20119;48.334;16.206;2023-03-01T09:47:31;45.38;;;29.05;;
33810;SDS011;20119;48.334;16.206;2023-03-01T09:50:03;45.83;;;29.63;;
33810;SDS011;20119;48.334;16.206;2023-03-01T09:52:38;42.97;;;27.30;;
33810;SDS011;20119;48.334;16.206;2023-03-01T09:55:09;43.30;;;28.65;;
33810;SDS011;20119;48.334;16.206;2023-03-01T09:57:41;43.78;;;27.33;;
33810;SDS011;20119;48.334;16.206;2023-03-01T10:00:19;45.38;;;28.55;;
33810;SDS011;20119;48.334;16.206;2023-03-01T10:02:59;42.15;;;26.83;;
33810;SDS011;20119;48.334;16.206;2023-03-01T10:05:36;39.42;;;25.85;;
33810;SDS011;20119;48.334;16.206;2023-03-01T10:10:58;39.95;;;26.00;;
33810;SDS011;20119;48.334;16.206;2023-03-01T10:13:28;41.50;;;24.75;;
33810;SDS011;20119;48.334;16.206;2023-03-01T10:16:05;39.80;;;25.33;;
33810;SDS011;20119;48.334;16.206;2023-03-01T10:18:40;36.65;;;23.58;;
33810;SDS011;20119;48.334;16.206;2023-03-01T10:21:13;41.53;;;25.33;;
33810;SDS011;20119;48.334;16.206;2023-03-01T10:23:42;38.38;;;23.27;;
33810;SDS011;20119;48.334;16.206;2023-03-01T10:26:17;34.58;;;23.23;;
33810;SDS011;20119;48.334;16.206;2023-03-01T10:28:59;31.42;;;19.08;;
33810;SDS011;20119;48.334;16.206;2023-03-01T10:31:32;32.05;;;19.83;;
33810;SDS011;20119;48.334;16.206;2023-03-01T10:34:09;35.00;;;20.60;;
33810;SDS011;20119;48.334;16.206;2023-03-01T10:36:38;32.78;;;21.75;;
33810;SDS011;20119;48.334;16.206;2023-03-01T10:39:11;33.58;;;20.08;;
33810;SDS011;20119;48.334;16.206;2023-03-01T10:41:53;34.88;;;21.02;;
33810;SDS011;20119;48.334;16.206;2023-03-01T10:44:39;36.00;;;23.40;;
33810;SDS011;20119;48.334;16.206;2023-03-01T10:47:18;34.47;;;22.08;;
33810;SDS011;20119;48.334;16.206;2023-03-01T10:49:55;39.33;;;23.98;;
33810;SDS011;20119;48.334;16.206;2023-03-01T10:52:26;34.90;;;22.58;;
33810;SDS011;20119;48.334;16.206;2023-03-01T10:54:55;36.15;;;23.48;;
33810;SDS011;20119;48.334;16.206;2023-03-01T10:57:34;40.03;;;23.13;;
33810;SDS011;20119;48.334;16.206;2023-03-01T11:00:15;37.25;;;22.25;;
33810;SDS011;20119;48.334;16.206;2023-03-01T11:02:46;31.23;;;20.80;;
33810;SDS011;20119;48.334;16.206;2023-03-01T11:05:21;32.65;;;20.70;;
33810;SDS011;20119;48.334;16.206;2023-03-01T11:07:50;30.63;;;21.48;;
33810;SDS011;20119;48.334;16.206;2023-03-01T11:10:21;34.85;;;21.35;;
33810;SDS011;20119;48.334;16.206;2023-03-01T11:12:50;37.53;;;22.33;;
33810;SDS011;20119;48.334;16.206;2023-03-01T11:15:19;32.58;;;20.45;;
33810;SDS011;20119;48.334;16.206;2023-03-01T11:17:51;36.72;;;23.35;;
33810;SDS011;20119;48.334;16.206;2023-03-01T11:20:25;30.77;;;20.20;;
33810;SDS011;20119;48.334;16.206;2023-03-01T11:22:57;34.75;;;20.73;;
33810;SDS011;20119;48.334;16.206;2023-03-01T11:25:29;33.40;;;20.35;;
33810;SDS011;20119;48.334;16.206;2023-03-01T11:28:01;30.27;;;19.83;;
33810;SDS011;20119;48.334;16.206;2023-03-01T11:30:31;33.78;;;20.77;;
33810;SDS011;20119;48.334;16.206;2023-03-01T11:33:05;30.98;;;20.08;;
33810;SDS011;20119;48.334;16.206;2023-03-01T11:35:43;30.67;;;19.55;;
33810;SDS011;20119;48.334;16.206;2023-03-01T11:38:16;32.30;;;20.25;;
33810;SDS011;20119;48.334;16.206;2023-03-01T11:40:49;30.35;;;19.95;;
33810;SDS011;20119;48.334;16.206;2023-03-01T11:43:26;29.38;;;18.70;;
33810;SDS011;20119;48.334;16.206;2023-03-01T11:46:19;31.00;;;18.73;;
33810;SDS011;20119;48.334;16.206;2023-03-01T11:49:10;31.48;;;19.33;;
33810;SDS011;20119;48.334;16.206;2023-03-01T11:51:51;30.88;;;19.55;;
33810;SDS011;20119;48.334;16.206;2023-03-01T11:54:27;28.58;;;18.30;;
33810;SDS011;20119;48.334;16.206;2023-03-01T11:57:04;27.92;;;19.17;;
33810;SDS011;20119;48.334;16.206;2023-03-01T11:59:49;36.22;;;20.17;;
33810;SDS011;20119;48.334;16.206;2023-03-01T12:02:37;30.08;;;19.83;;
33810;SDS011;20119;48.334;16.206;2023-03-01T12:05:21;30.90;;;20.63;;
33810;SDS011;20119;48.334;16.206;2023-03-01T12:07:59;31.38;;;20.02;;
33810;SDS011;20119;48.334;16.206;2023-03-01T12:10:30;31.00;;;19.05;;
33810;SDS011;20119;48.334;16.206;2023-03-01T12:13:15;31.70;;;19.08;;
33810;SDS011;20119;48.334;16.206;2023-03-01T12:16:06;30.30;;;17.52;;
33810;SDS011;20119;48.334;16.206;2023-03-01T12:21:55;29.40;;;19.20;;
33810;SDS011;20119;48.334;16.206;2023-03-01T12:24:45;25.45;;;17.55;;
33810;SDS011;20119;48.334;16.206;2023-03-01T12:27:51;30.15;;;19.15;;
33810;SDS011;20119;48.334;16.206;2023-03-01T12:30:32;25.17;;;16.52;;
33810;SDS011;20119;48.334;16.206;2023-03-01T12:33:11;27.20;;;18.58;;
33810;SDS011;20119;48.334;16.206;2023-03-01T12:38:42;21.33;;;15.13;;
33810;SDS011;20119;48.334;16.206;2023-03-01T12:41:34;21.63;;;14.30;;
33810;SDS011;20119;48.334;16.206;2023-03-01T12:47:07;22.98;;;15.00;;
33810;SDS011;20119;48.334;16.206;2023-03-01T12:49:47;22.48;;;15.50;;
33810;SDS011;20119;48.334;16.206;2023-03-01T12:52:19;25.45;;;16.98;;
33810;SDS011;20119;48.334;16.206;2023-03-01T12:54:51;25.02;;;15.85;;
33810;SDS011;20119;48.334;16.206;2023-03-01T12:57:25;30.65;;;17.75;;
33810;SDS011;20119;48.334;16.206;2023-03-01T13:00:08;21.27;;;15.10;;
33810;SDS011;20119;48.334;16.206;2023-03-01T13:02:50;25.92;;;16.45;;
33810;SDS011;20119;48.334;16.206;2023-03-01T13:05:24;23.90;;;15.80;;
33810;SDS011;20119;48.334;16.206;2023-03-01T13:08:01;23.52;;;16.40;;
33810;SDS011;20119;48.334;16.206;2023-03-01T13:10:40;22.08;;;15.23;;
33810;SDS011;20119;48.334;16.206;2023-03-01T13:13:18;23.70;;;15.90;;
33810;SDS011;20119;48.334;16.206;2023-03-01T13:15:47;25.42;;;16.30;;
33810;SDS011;20119;48.334;16.206;2023-03-01T13:20:52;26.08;;;17.20;;
33810;SDS011;20119;48.334;16.206;2023-03-01T13:23:26;26.73;;;16.83;;
33810;SDS011;20119;48.334;16.206;2023-03-01T13:26:14;29.08;;;16.70;;
33810;SDS011;20119;48.334;16.206;2023-03-01T13:34:42;29.33;;;18.83;;
33810;SDS011;20119;48.334;16.206;2023-03-01T13:40:05;32.40;;;18.33;;
33810;SDS011;20119;48.334;16.206;2023-03-01T13:43:26;42.47;;;19.25;;
33810;SDS011;20119;48.334;16.206;2023-03-01T13:46:00;33.63;;;18.98;;
33810;SDS011;20119;48.334;16.206;2023-03-01T13:48:33;28.58;;;16.65;;
33810;SDS011;20119;48.334;16.206;2023-03-01T13:51:01;47.67;;;21.92;;
33810;SDS011;20119;48.334;16.206;2023-03-01T13:56:18;27.35;;;17.58;;
33810;SDS011;20119;48.334;16.206;2023-03-01T13:58:51;31.85;;;18.83;;
33810;SDS011;20119;48.334;16.206;2023-03-01T14:03:55;34.15;;;19.58;;
33810;SDS011;20119;48.334;16.206;2023-03-01T14:06:23;26.77;;;18.65;;
33810;SDS011;20119;48.334;16.206;2023-03-01T14:08:52;30.55;;;19.40;;
33810;SDS011;20119;48.334;16.206;2023-03-01T14:14:52;29.75;;;18.83;;
33810;SDS011;20119;48.334;16.206;2023-03-01T14:17:43;28.92;;;18.73;;
33810;SDS011;20119;48.334;16.206;2023-03-01T14:20:17;30.95;;;19.10;;
33810;SDS011;20119;48.334;16.206;2023-03-01T14:22:46;29.20;;;20.13;;
33810;SDS011;20119;48.334;16.206;2023-03-01T14:25:20;29.35;;;20.05;;
33810;SDS011;20119;48.334;16.206;2023-03-01T14:27:56;33.15;;;18.67;;
33810;SDS011;20119;48.334;16.206;2023-03-01T14:30:27;27.55;;;18.75;;
33810;SDS011;20119;48.334;16.206;2023-03-01T14:33:01;31.58;;;19.33;;
33810;SDS011;20119;48.334;16.206;2023-03-01T14:35:31;32.30;;;18.02;;
33810;SDS011;20119;48.334;16.206;2023-03-01T14:38:00;31.48;;;22.13;;
33810;SDS011;20119;48.334;16.206;2023-03-01T14:40:28;32.88;;;20.45;;
33810;SDS011;20119;48.334;16.206;2023-03-01T14:42:59;33.25;;;19.85;;
33810;SDS011;20119;48.334;16.206;2023-03-01T14:45:28;38.40;;;21.27;;
33810;SDS011;20119;48.334;16.206;2023-03-01T14:47:58;31.17;;;19.55;;
33810;SDS011;20119;48.334;16.206;2023-03-01T14:50:30;31.52;;;20.73;;
33810;SDS011;20119;48.334;16.206;2023-03-01T14:53:00;29.37;;;20.07;;
33810;SDS011;20119;48.334;16.206;2023-03-01T14:55:30;32.08;;;20.88;;
33810;SDS011;20119;48.334;16.206;2023-03-01T14:58:02;35.78;;;20.98;;
33810;SDS011;20119;48.334;16.206;2023-03-01T15:00:31;29.13;;;19.50;;
33810;SDS011;20119;48.334;16.206;2023-03-01T15:03:04;29.90;;;19.77;;
33810;SDS011;20119;48.334;16.206;2023-03-01T15:05:38;29.48;;;18.65;;
33810;SDS011;20119;48.334;16.206;2023-03-01T15:08:06;31.30;;;20.30;;
33810;SDS011;20119;48.334;16.206;2023-03-01T15:10:39;28.77;;;19.15;;
33810;SDS011;20119;48.334;16.206;2023-03-01T15:13:10;33.33;;;20.63;;
33810;SDS011;20119;48.334;16.206;2023-03-01T15:15:38;30.75;;;20.35;;